createdAt,value
2023-04-02T08:50:54.064Z,1.10
2023-04-02T08:53:28.556Z,1.10
2023-04-02T08:56:05.491Z,0.88
2023-04-02T08:58:41.434Z,0.82
2023-04-02T09:01:23.842Z,1.10
2023-04-02T09:03:54.372Z,1.23
2023-04-02T09:06:22.075Z,0.82
2023-04-02T09:08:51.794Z,0.90
2023-04-02T09:11:18.128Z,1.15
2023-04-02T09:13:47.854Z,1.17
2023-04-02T09:16:18.297Z,1.17
2023-04-02T09:18:45.535Z,0.73
2023-04-02T09:21:21.011Z,1.05
2023-04-02T09:23:48.754Z,1.00
2023-04-02T09:26:27.602Z,1.00
2023-04-02T09:29:20.835Z,0.80
2023-04-02T09:31:55.476Z,1.20
2023-04-02T09:34:33.191Z,1.20
2023-04-02T09:37:16.261Z,1.00
2023-04-02T09:39:42.945Z,1.15
2023-04-02T09:42:31.438Z,1.20
2023-04-02T09:45:12.412Z,1.08
2023-04-02T09:47:42.308Z,1.15
2023-04-02T09:50:21.997Z,1.60
2023-04-02T09:52:49.726Z,1.40
2023-04-02T09:55:16.107Z,1.27
2023-04-02T09:57:43.003Z,1.40
2023-04-02T10:00:31.685Z,1.42
2023-04-02T10:03:06.806Z,2.42
2023-04-02T10:08:28.098Z,1.60
2023-04-02T10:10:57.937Z,1.40
2023-04-02T10:13:31.348Z,1.35
2023-04-02T10:16:09.472Z,1.20
2023-04-02T10:18:41.427Z,1.00
2023-04-02T10:21:12.667Z,1.13
2023-04-02T10:23:39.573Z,1.30
2023-04-02T10:26:21.944Z,1.30
2023-04-02T10:29:19.017Z,1.17
2023-04-02T10:32:00.380Z,1.10
2023-04-02T10:35:15.944Z,1.08
2023-04-02T10:38:09.552Z,1.30
2023-04-02T10:40:42.479Z,1.50
2023-04-02T10:43:41.066Z,1.40
2023-04-02T10:47:04.417Z,1.42
2023-04-02T10:50:17.720Z,1.20
2023-04-02T10:52:56.514Z,1.45
2023-04-02T10:55:30.977Z,1.42
2023-04-02T10:58:03.622Z,1.30
2023-04-02T11:00:37.106Z,1.00
2023-04-02T11:03:15.088Z,1.20
2023-04-02T11:05:50.801Z,1.08
2023-04-02T11:08:26.424Z,1.45
2023-04-02T11:11:20.122Z,1.48
2023-04-02T11:13:57.978Z,1.27
2023-04-02T11:16:25.411Z,1.30
2023-04-02T11:19:16.885Z,1.40
2023-04-02T11:21:58.580Z,1.13
2023-04-02T11:24:32.997Z,1.40
2023-04-02T11:27:11.395Z,1.50
2023-04-02T11:29:49.286Z,1.45
2023-04-02T11:32:34.733Z,1.40
2023-04-02T11:35:22.982Z,1.35
2023-04-02T11:37:49.586Z,1.35
2023-04-02T11:40:18.922Z,1.20
2023-04-02T11:42:50.936Z,1.50
2023-04-02T11:48:00.557Z,1.33
2023-04-02T11:50:29.995Z,1.38
2023-04-02T11:53:02.005Z,1.42
2023-04-02T11:55:36.099Z,1.05
2023-04-02T11:58:30.959Z,1.17
2023-04-02T12:01:09.278Z,1.38
2023-04-02T12:04:11.422Z,1.60
2023-04-02T12:06:46.801Z,1.38
2023-04-02T12:09:23.539Z,1.58
2023-04-02T12:11:58.968Z,1.23
2023-04-02T12:14:51.742Z,1.20
2023-04-02T12:17:39.793Z,1.90
2023-04-02T12:20:09.660Z,1.65
2023-04-02T12:22:47.880Z,2.17
2023-04-02T12:25:33.903Z,1.67
2023-04-02T12:28:06.407Z,1.70
2023-04-02T12:30:33.996Z,1.50
2023-04-02T12:33:21.993Z,1.90
2023-04-02T12:35:53.282Z,1.90
2023-04-02T12:38:43.566Z,1.98
2023-04-02T12:41:27.356Z,1.80
2023-04-02T12:44:02.402Z,1.63
2023-04-02T12:46:31.524Z,1.80
2023-04-02T12:49:06.641Z,2.22
2023-04-02T12:51:36.192Z,1.92
2023-04-02T12:54:02.955Z,2.00
2023-04-02T12:56:29.308Z,1.92
2023-04-02T12:58:57.868Z,2.10
2023-04-02T13:01:29.354Z,1.58
2023-04-02T13:04:08.107Z,2.35
2023-04-02T13:06:36.234Z,1.90
2023-04-02T13:09:06.012Z,1.65
2023-04-02T13:11:38.087Z,1.48
2023-04-02T13:16:38.192Z,1.48
2023-04-02T13:19:16.705Z,1.70
2023-04-02T13:21:43.890Z,2.10
2023-04-02T13:24:25.323Z,1.60
2023-04-02T13:26:55.770Z,2.38
2023-04-02T13:29:33.549Z,1.83
2023-04-02T13:32:02.294Z,1.83
2023-04-02T13:34:30.076Z,1.40
2023-04-02T13:36:57.413Z,1.48
2023-04-02T13:39:24.186Z,1.35
2023-04-02T13:42:02.731Z,1.38
2023-04-02T13:44:35.060Z,1.92
2023-04-02T13:47:01.740Z,1.50
2023-04-02T13:49:28.192Z,1.35
2023-04-02T13:51:58.703Z,1.67
2023-04-02T13:54:34.912Z,1.52
2023-04-02T13:57:01.443Z,1.85
2023-04-02T13:59:28.004Z,1.15
2023-04-02T14:01:59.295Z,1.73
2023-04-02T14:04:29.927Z,2.20
2023-04-02T14:07:30.025Z,1.67
2023-04-02T14:10:20.437Z,1.38
2023-04-02T14:13:15.284Z,2.10
2023-04-02T14:16:08.729Z,1.85
2023-04-02T14:18:36.631Z,1.40
2023-04-02T14:21:22.984Z,1.48
2023-04-02T14:24:05.633Z,1.90
2023-04-02T14:27:04.366Z,1.90
2023-04-02T14:29:43.791Z,1.13
2023-04-02T14:32:34.413Z,2.00
2023-04-02T14:35:13.043Z,1.73
2023-04-02T14:37:54.436Z,1.63
2023-04-02T14:40:28.503Z,1.53
2023-04-02T14:43:02.991Z,1.77
2023-04-02T14:45:55.043Z,1.70
2023-04-02T14:48:39.985Z,1.77
2023-04-02T14:51:14.438Z,0.90
2023-04-02T14:53:52.662Z,1.13
2023-04-02T14:56:21.728Z,0.85
2023-04-02T14:59:24.163Z,2.00
2023-04-02T15:01:56.613Z,1.40
2023-04-02T15:04:30.901Z,1.65
2023-04-02T15:07:05.444Z,0.70
2023-04-02T15:09:38.224Z,0.93
2023-04-02T15:12:28.680Z,1.30
2023-04-02T15:15:03.428Z,1.27
2023-04-02T15:17:31.004Z,1.50
2023-04-02T15:20:12.148Z,1.17
2023-04-02T15:22:47.577Z,2.20
2023-04-02T15:25:29.417Z,1.10
2023-04-02T15:28:07.352Z,1.40
2023-04-02T15:30:45.095Z,1.50
2023-04-02T15:33:28.215Z,1.33
2023-04-02T15:36:16.194Z,1.75
2023-04-02T15:38:54.520Z,1.90
2023-04-02T15:41:32.240Z,4.22
2023-04-02T15:44:09.776Z,9.10
2023-04-02T15:47:02.307Z,16.45
2023-04-02T15:50:04.281Z,21.35
2023-04-02T15:52:46.826Z,28.65
2023-04-02T15:55:27.870Z,35.28
2023-04-02T15:58:12.757Z,40.25
2023-04-02T16:01:02.141Z,47.58
2023-04-02T16:03:56.139Z,53.25
2023-04-02T16:06:34.521Z,61.15
2023-04-02T16:09:16.060Z,68.95
2023-04-02T16:11:42.698Z,77.55
2023-04-02T16:14:32.055Z,87.90
2023-04-02T16:17:10.850Z,97.72
2023-04-02T16:20:14.457Z,108.85
